Time;durP1;ratioP1;P1;durP2;ratioP2;P2;SDS_P1;SDS_P2;PMS_P1;PMS_P2;Temp;Humidity;BMP_temperature;BMP_pressure;BME280_temperature;BME280_humidity;BME280_pressure;Samples;Min_cycle;Max_cycle;Signal;HPM_P1;HPM_P2
2022/09/19 00:02:03;;;;;;;9.90;9.60;;;7.00;99.90;;;;;;5160822;27;20231;-80
2022/09/19 00:04:34;;;;;;;10.00;9.70;;;7.00;99.90;;;;;;5158917;27;20210;-80
2022/09/19 00:07:02;;;;;;;10.00;9.70;;;7.00;99.90;;;;;;5160294;27;20204;-78
2022/09/19 00:09:32;;;;;;;9.70;9.40;;;7.00;99.90;;;;;;5160381;27;20291;-80
2022/09/19 00:12:01;;;;;;;9.90;9.60;;;6.90;99.90;;;;;;5148004;27;21063;-81
2022/09/19 00:14:34;;;;;;;9.77;9.47;;;6.90;99.90;;;;;;5155084;27;20250;-81
2022/09/19 00:17:07;;;;;;;9.93;9.63;;;6.90;99.90;;;;;;5152361;27;20287;-81
2022/09/19 00:19:39;;;;;;;10.10;9.80;;;6.90;99.90;;;;;;5144114;27;20224;-81
2022/09/19 00:22:07;;;;;;;9.97;9.67;;;6.80;99.90;;;;;;5143835;27;20232;-81
2022/09/19 00:24:46;;;;;;;9.93;9.63;;;6.90;99.90;;;;;;5143020;27;20228;-80
2022/09/19 00:27:17;;;;;;;9.80;9.50;;;6.80;99.90;;;;;;5142842;27;20227;-80
2022/09/19 00:29:55;;;;;;;9.80;9.50;;;6.80;99.90;;;;;;5142701;27;20256;-81
2022/09/19 00:32:24;;;;;;;10.00;9.70;;;6.80;99.90;;;;;;5142309;27;20235;-81
2022/09/19 00:34:54;;;;;;;9.90;9.60;;;6.90;99.90;;;;;;5141084;27;20236;-81
2022/09/19 00:37:23;;;;;;;9.97;9.67;;;6.90;99.90;;;;;;5143688;27;20247;-81
2022/09/19 00:39:52;;;;;;;10.03;9.73;;;6.90;99.90;;;;;;5143632;27;20251;-80
2022/09/19 00:42:23;;;;;;;9.80;9.50;;;6.90;99.90;;;;;;5151841;27;20224;-80
2022/09/19 00:45:00;;;;;;;10.10;9.80;;;6.80;99.90;;;;;;5143744;27;20232;-80
2022/09/19 00:47:38;;;;;;;9.83;9.53;;;6.90;99.90;;;;;;5143959;27;20246;-80
2022/09/19 00:50:15;;;;;;;10.00;9.70;;;6.80;99.90;;;;;;5142934;27;20228;-81
2022/09/19 00:52:48;;;;;;;9.73;9.43;;;6.80;99.90;;;;;;5142393;27;20231;-81
2022/09/19 00:55:16;;;;;;;9.70;9.40;;;6.90;99.90;;;;;;5142601;27;20214;-81
2022/09/19 00:57:56;;;;;;;9.70;9.40;;;6.90;99.90;;;;;;5147163;27;20228;-81
2022/09/19 01:00:26;;;;;;;9.70;9.40;;;6.90;99.90;;;;;;5148449;27;20224;-80
2022/09/19 01:02:53;;;;;;;9.70;9.40;;;6.90;99.90;;;;;;5147468;27;21068;-81
2022/09/19 01:05:33;;;;;;;9.97;9.67;;;6.90;99.90;;;;;;5147439;27;20220;-80
2022/09/19 01:08:21;;;;;;;10.10;9.80;;;6.80;99.90;;;;;;5147859;27;20232;-81
2022/09/19 01:11:16;;;;;;;9.97;9.67;;;6.80;99.90;;;;;;5148007;27;20219;-79
2022/09/19 01:13:59;;;;;;;10.00;9.70;;;6.80;99.90;;;;;;5147760;27;20318;-78
2022/09/19 01:16:42;;;;;;;9.93;9.63;;;6.80;99.90;;;;;;5149753;27;20212;-79
2022/09/19 01:19:44;;;;;;;10.13;9.83;;;6.80;99.90;;;;;;5152888;27;20289;-79
2022/09/19 01:22:24;;;;;;;10.20;9.90;;;6.90;99.90;;;;;;5155250;27;20231;-79
2022/09/19 01:24:59;;;;;;;10.13;9.83;;;6.90;99.90;;;;;;5154267;27;20265;-79
2022/09/19 01:27:57;;;;;;;10.30;10.00;;;6.90;99.90;;;;;;5151188;27;20220;-78
2022/09/19 01:30:25;;;;;;;10.00;9.70;;;7.00;99.90;;;;;;5157488;27;20262;-79
2022/09/19 01:33:02;;;;;;;10.00;9.70;;;7.00;99.90;;;;;;5155304;27;20301;-79
2022/09/19 01:35:33;;;;;;;10.30;10.00;;;7.00;99.90;;;;;;5161725;27;20220;-79
2022/09/19 01:38:10;;;;;;;10.20;9.90;;;7.00;99.90;;;;;;5160073;27;20223;-80
2022/09/19 01:40:49;;;;;;;10.30;10.00;;;7.00;99.90;;;;;;5161941;27;20268;-78
2022/09/19 01:43:20;;;;;;;10.30;10.00;;;7.10;99.90;;;;;;5162265;27;20283;-79
2022/09/19 01:45:48;;;;;;;10.20;9.90;;;7.10;99.90;;;;;;5161612;27;20293;-78
2022/09/19 01:48:23;;;;;;;10.20;9.90;;;7.10;99.90;;;;;;5161332;27;20208;-78
2022/09/19 01:51:22;;;;;;;10.13;9.83;;;7.10;99.90;;;;;;5159969;27;20248;-79
2022/09/19 01:54:31;;;;;;;10.17;9.87;;;7.10;99.90;;;;;;5161001;27;20236;-77
2022/09/19 01:57:18;;;;;;;10.20;9.90;;;7.20;99.90;;;;;;5160942;27;20258;-78
2022/09/19 02:00:03;;;;;;;10.13;9.83;;;7.20;99.90;;;;;;5160498;27;20216;-78
2022/09/19 02:02:41;;;;;;;10.17;9.87;;;7.20;99.90;;;;;;5160439;27;20232;-78
2022/09/19 02:05:15;;;;;;;10.20;9.90;;;7.30;99.90;;;;;;5160617;27;20236;-78
2022/09/19 02:07:54;;;;;;;10.27;9.97;;;7.30;99.90;;;;;;5160207;27;20220;-78
2022/09/19 02:10:27;;;;;;;9.80;9.50;;;7.30;99.90;;;;;;5159540;27;20275;-77
2022/09/19 02:12:59;;;;;;;10.10;9.80;;;7.30;99.90;;;;;;5161556;27;20303;-78
2022/09/19 02:15:32;;;;;;;10.33;10.03;;;7.30;99.90;;;;;;5160756;27;20238;-78
2022/09/19 02:18:12;;;;;;;10.10;9.80;;;7.30;99.90;;;;;;5161333;27;20212;-79
2022/09/19 02:20:42;;;;;;;10.10;9.80;;;7.30;99.90;;;;;;5161355;27;20220;-79
2022/09/19 02:23:18;;;;;;;10.10;9.80;;;7.30;99.90;;;;;;5160984;27;20240;-79
2022/09/19 02:25:50;;;;;;;10.10;9.80;;;7.40;99.90;;;;;;5158219;27;20254;-79
2022/09/19 02:28:29;;;;;;;10.17;9.87;;;7.40;99.90;;;;;;5160106;27;20204;-78
2022/09/19 02:30:59;;;;;;;10.07;9.77;;;7.40;99.90;;;;;;5157094;27;20223;-78
2022/09/19 02:33:27;;;;;;;10.00;9.70;;;7.40;99.90;;;;;;5156557;27;20232;-80
2022/09/19 02:36:07;;;;;;;10.00;9.70;;;7.40;99.90;;;;;;5153557;27;20232;-80
2022/09/19 02:38:42;;;;;;;10.30;10.00;;;7.40;99.90;;;;;;5147887;27;20224;-79
2022/09/19 02:41:22;;;;;;;10.20;9.90;;;7.40;99.90;;;;;;5146627;27;20224;-79
2022/09/19 02:44:00;;;;;;;10.10;9.80;;;7.50;99.90;;;;;;5145810;27;20232;-79
2022/09/19 02:46:40;;;;;;;9.97;9.67;;;7.50;99.90;;;;;;5154279;27;20235;-80
2022/09/19 02:49:14;;;;;;;10.00;9.70;;;7.50;99.90;;;;;;5146742;27;20322;-79
2022/09/19 02:51:48;;;;;;;10.30;10.00;;;7.50;99.90;;;;;;5145081;27;20219;-79
2022/09/19 02:54:21;;;;;;;10.13;9.83;;;7.50;99.90;;;;;;5144226;27;20247;-79
2022/09/19 02:56:53;;;;;;;10.00;9.70;;;7.50;99.90;;;;;;5145220;27;20208;-79
2022/09/19 02:59:33;;;;;;;10.20;9.90;;;7.60;99.90;;;;;;5145272;27;20224;-79
2022/09/19 03:02:10;;;;;;;10.30;10.00;;;7.60;99.90;;;;;;5145228;27;20224;-79
2022/09/19 03:04:42;;;;;;;10.30;10.00;;;7.60;99.90;;;;;;5143998;27;20242;-80
2022/09/19 03:07:17;;;;;;;10.30;10.00;;;7.60;99.90;;;;;;5144412;27;20234;-79
2022/09/19 03:09:56;;;;;;;10.07;9.77;;;7.60;99.90;;;;;;5144750;27;20259;-79
2022/09/19 03:12:30;;;;;;;10.13;9.83;;;7.70;99.90;;;;;;5148570;27;20242;-79
2022/09/19 03:14:59;;;;;;;9.97;9.67;;;7.70;99.90;;;;;;5145737;27;20261;-79
2022/09/19 03:17:32;;;;;;;10.20;9.90;;;7.70;99.90;;;;;;5145800;27;20231;-78
2022/09/19 03:20:02;;;;;;;10.00;9.70;;;7.70;99.90;;;;;;5145374;27;20270;-79
2022/09/19 03:22:31;;;;;;;10.10;9.80;;;7.80;99.90;;;;;;5144865;27;20229;-79
2022/09/19 03:25:01;;;;;;;10.10;9.80;;;7.80;99.90;;;;;;5143910;27;20242;-79
2022/09/19 03:27:30;;;;;;;10.10;9.80;;;7.80;99.90;;;;;;5144967;27;20249;-79
2022/09/19 03:29:58;;;;;;;10.17;9.87;;;7.80;99.90;;;;;;5145242;27;20710;-79
2022/09/19 03:32:29;;;;;;;9.70;9.40;;;7.80;99.90;;;;;;5144697;27;20267;-79
2022/09/19 03:34:56;;;;;;;9.70;9.40;;;7.80;99.90;;;;;;5143748;27;20240;-79
2022/09/19 03:37:25;;;;;;;9.70;9.40;;;7.80;99.90;;;;;;5144084;27;20244;-79
2022/09/19 03:39:55;;;;;;;9.83;9.53;;;7.80;99.90;;;;;;5143962;27;20234;-79
2022/09/19 03:42:25;;;;;;;9.70;9.40;;;7.80;99.90;;;;;;5144013;27;20275;-79
2022/09/19 03:44:57;;;;;;;9.90;9.60;;;7.80;99.90;;;;;;5143190;27;20300;-79
2022/09/19 03:47:25;;;;;;;9.80;9.50;;;7.80;99.90;;;;;;5143786;27;20258;-78
2022/09/19 03:49:57;;;;;;;10.00;9.70;;;7.90;99.90;;;;;;5143166;27;20267;-79
2022/09/19 03:52:26;;;;;;;9.80;9.50;;;7.90;99.90;;;;;;5143209;27;20957;-79
2022/09/19 03:54:54;;;;;;;9.60;9.30;;;7.90;99.90;;;;;;5142832;27;20236;-79
2022/09/19 03:57:23;;;;;;;9.70;9.40;;;7.90;99.90;;;;;;5151746;27;20228;-79
2022/09/19 03:59:50;;;;;;;9.57;9.27;;;7.90;99.90;;;;;;5143755;27;20251;-79
2022/09/19 04:02:18;;;;;;;9.70;9.40;;;7.90;99.90;;;;;;5143238;27;20216;-79
2022/09/19 04:04:46;;;;;;;9.90;9.60;;;7.90;99.90;;;;;;5142487;27;20235;-79
2022/09/19 04:07:16;;;;;;;9.67;9.37;;;7.90;99.90;;;;;;5143576;27;20242;-79
2022/09/19 04:09:44;;;;;;;9.80;9.50;;;7.90;99.90;;;;;;5149055;27;20228;-79
2022/09/19 04:12:13;;;;;;;10.10;9.80;;;8.00;99.90;;;;;;5142913;27;20227;-80
2022/09/19 04:14:41;;;;;;;9.80;9.50;;;8.00;99.90;;;;;;5142337;27;20295;-80
2022/09/19 04:17:11;;;;;;;10.00;9.70;;;8.00;99.90;;;;;;5142689;27;20262;-79
2022/09/19 04:19:40;;;;;;;10.00;9.70;;;8.00;99.90;;;;;;5146416;27;20233;-80
2022/09/19 04:22:10;;;;;;;9.83;9.53;;;8.00;99.90;;;;;;5144835;27;20239;-79
2022/09/19 04:24:42;;;;;;;9.70;9.40;;;8.00;99.90;;;;;;5143436;27;20240;-79
2022/09/19 04:27:13;;;;;;;9.60;9.30;;;8.00;99.90;;;;;;5143264;27;20262;-79
2022/09/19 04:29:43;;;;;;;9.80;9.50;;;8.10;99.90;;;;;;5143397;27;20221;-79
2022/09/19 04:32:12;;;;;;;9.80;9.50;;;8.10;99.90;;;;;;5143168;27;20279;-79
2022/09/19 04:34:43;;;;;;;9.80;9.50;;;8.10;99.90;;;;;;5145842;22;20236;-80
2022/09/19 04:37:11;;;;;;;9.80;9.50;;;8.10;99.90;;;;;;5091655;28;20237;-80
2022/09/19 04:39:40;;;;;;;9.70;9.40;;;8.10;99.90;;;;;;5099466;28;20747;-80
2022/09/19 04:42:08;;;;;;;9.83;9.53;;;8.10;99.90;;;;;;5088247;28;20210;-80
2022/09/19 04:44:36;;;;;;;9.50;9.20;;;8.10;99.90;;;;;;5077439;28;20244;-80
2022/09/19 04:47:06;;;;;;;9.50;9.20;;;8.10;99.90;;;;;;5077774;28;20238;-79
2022/09/19 04:49:39;;;;;;;9.90;9.60;;;8.10;99.90;;;;;;5075931;28;20238;-80
2022/09/19 04:52:07;;;;;;;9.83;9.53;;;8.20;99.90;;;;;;5078264;28;20222;-79
2022/09/19 04:54:37;;;;;;;9.70;9.40;;;8.20;99.90;;;;;;5097313;28;20248;-80
2022/09/19 04:57:12;;;;;;;10.20;9.90;;;8.20;99.90;;;;;;5097904;28;20416;-82
2022/09/19 04:59:41;;;;;;;10.37;10.07;;;8.20;99.90;;;;;;5098725;28;20292;-81
2022/09/19 05:02:10;;;;;;;10.37;10.07;;;8.20;99.90;;;;;;5100360;28;20222;-82
2022/09/19 05:04:45;;;;;;;10.30;10.00;;;8.30;99.90;;;;;;5100827;28;20301;-83
2022/09/19 05:07:13;;;;;;;10.23;9.93;;;8.30;99.90;;;;;;5102280;28;20309;-80
2022/09/19 05:09:41;;;;;;;10.37;10.07;;;8.30;99.90;;;;;;5087360;28;20238;-80
2022/09/19 05:12:11;;;;;;;10.20;9.90;;;8.30;99.90;;;;;;5097472;28;20210;-80
2022/09/19 05:14:38;;;;;;;10.20;9.90;;;8.30;99.90;;;;;;5098108;28;20302;-80
2022/09/19 05:17:08;;;;;;;10.00;9.70;;;8.30;99.90;;;;;;5099209;28;20290;-78
2022/09/19 05:19:37;;;;;;;10.00;9.70;;;8.30;99.90;;;;;;5099205;28;20234;-78
2022/09/19 05:22:06;;;;;;;10.17;9.87;;;8.30;99.90;;;;;;5099215;28;20277;-80
2022/09/19 05:24:37;;;;;;;9.80;9.50;;;8.30;99.90;;;;;;5091203;28;20306;-82
2022/09/19 05:27:05;;;;;;;9.90;9.60;;;8.30;99.90;;;;;;5081047;28;20230;-81
2022/09/19 05:29:39;;;;;;;9.80;9.50;;;8.30;99.90;;;;;;5081747;28;20286;-80
2022/09/19 05:32:07;;;;;;;9.60;9.30;;;8.30;99.90;;;;;;5082119;28;20270;-80
2022/09/19 05:34:34;;;;;;;9.73;9.43;;;8.30;99.90;;;;;;5090711;28;20237;-80
2022/09/19 05:37:02;;;;;;;9.80;9.50;;;8.40;99.90;;;;;;5103633;28;20233;-81
2022/09/19 05:39:32;;;;;;;9.70;9.40;;;8.40;99.90;;;;;;5102747;28;20273;-80
2022/09/19 05:42:01;;;;;;;9.93;9.63;;;8.40;99.90;;;;;;5101167;28;20285;-80
2022/09/19 05:44:31;;;;;;;10.00;9.70;;;8.40;99.90;;;;;;5104268;28;20233;-79
2022/09/19 05:47:11;;;;;;;10.20;9.90;;;8.40;99.90;;;;;;5104424;28;20457;-78
2022/09/19 05:49:39;;;;;;;9.87;9.57;;;8.40;99.90;;;;;;5104085;28;20316;-78
2022/09/19 05:54:55;;;;;;;9.63;9.33;;;8.50;99.90;;;;;;5102175;28;20237;-78
2022/09/19 05:57:25;;;;;;;9.73;9.43;;;8.60;99.90;;;;;;5101349;28;20229;-78
2022/09/19 05:59:54;;;;;;;10.03;9.73;;;8.60;99.90;;;;;;5101713;28;20285;-78
2022/09/19 06:02:33;;;;;;;9.67;9.37;;;8.60;99.90;;;;;;5102870;28;20218;-79
2022/09/19 06:05:02;;;;;;;9.60;9.30;;;8.60;99.90;;;;;;5101965;28;20229;-80
2022/09/19 06:07:31;;;;;;;9.73;9.43;;;8.60;99.90;;;;;;5103341;28;20229;-78
2022/09/19 06:10:00;;;;;;;9.20;8.90;;;8.70;99.90;;;;;;5100503;28;20234;-78
2022/09/19 06:12:30;;;;;;;9.17;8.87;;;8.70;99.90;;;;;;5099821;28;20230;-77
2022/09/19 06:15:00;;;;;;;9.40;9.10;;;8.70;99.90;;;;;;5100082;28;20288;-77
2022/09/19 06:17:29;;;;;;;9.10;8.80;;;8.70;99.90;;;;;;5100964;28;20229;-78
2022/09/19 06:19:58;;;;;;;9.40;9.10;;;8.70;99.90;;;;;;5100201;28;20239;-77
2022/09/19 06:22:29;;;;;;;9.53;9.23;;;8.80;99.90;;;;;;5098569;28;20260;-79
2022/09/19 06:24:58;;;;;;;9.50;9.20;;;8.80;99.90;;;;;;5104438;28;20289;-76
2022/09/19 06:27:27;;;;;;;9.20;8.90;;;8.80;99.90;;;;;;5118713;28;20253;-76
2022/09/19 06:29:55;;;;;;;9.30;9.00;;;8.80;99.90;;;;;;5118394;28;20226;-75
2022/09/19 06:32:29;;;;;;;9.03;8.73;;;8.80;99.90;;;;;;5118622;28;20213;-76
2022/09/19 06:34:58;;;;;;;9.33;9.03;;;8.90;99.90;;;;;;5113623;28;20252;-78
2022/09/19 06:37:27;;;;;;;9.30;9.00;;;8.90;99.90;;;;;;5103097;28;20229;-78
2022/09/19 06:39:56;;;;;;;9.10;8.80;;;9.00;99.90;;;;;;5098958;28;20233;-79
2022/09/19 06:42:25;;;;;;;9.10;8.80;;;9.10;99.90;;;;;;5098327;28;20238;-78
2022/09/19 06:44:54;;;;;;;9.50;9.20;;;9.10;99.90;;;;;;5097358;28;20264;-79
2022/09/19 06:47:23;;;;;;;9.30;9.00;;;9.10;99.90;;;;;;5097662;28;20229;-78
2022/09/19 06:49:52;;;;;;;9.03;8.73;;;9.10;99.90;;;;;;5097118;28;20227;-78
2022/09/19 06:52:23;;;;;;;9.13;8.83;;;9.10;99.90;;;;;;5096814;28;20234;-78
2022/09/19 06:54:52;;;;;;;9.37;9.07;;;9.10;99.90;;;;;;5096093;28;20705;-77
2022/09/19 06:57:22;;;;;;;8.90;8.70;;;9.20;99.90;;;;;;5098118;28;20232;-77
2022/09/19 06:59:51;;;;;;;9.30;9.00;;;9.20;99.90;;;;;;5097160;28;20224;-77
2022/09/19 07:02:21;;;;;;;9.20;8.90;;;9.30;99.90;;;;;;5096102;28;20237;-78
2022/09/19 07:04:51;;;;;;;9.33;9.03;;;9.40;99.90;;;;;;5096519;28;20241;-78
2022/09/19 07:07:21;;;;;;;9.50;9.20;;;9.50;99.90;;;;;;5096779;28;20232;-78
2022/09/19 07:09:49;;;;;;;9.60;9.30;;;9.50;99.90;;;;;;5094382;28;20233;-79
2022/09/19 07:12:16;;;;;;;9.70;9.40;;;9.50;99.90;;;;;;5095411;28;20238;-76
2022/09/19 07:14:44;;;;;;;9.47;9.17;;;9.40;99.90;;;;;;5094152;28;20267;-76
2022/09/19 07:17:15;;;;;;;9.40;9.10;;;9.40;99.90;;;;;;5095198;28;20241;-76
2022/09/19 07:19:44;;;;;;;9.07;8.77;;;9.40;99.90;;;;;;5094179;28;20226;-76
2022/09/19 07:22:14;;;;;;;9.20;8.90;;;9.30;99.90;;;;;;5094606;28;20232;-76
2022/09/19 07:24:42;;;;;;;9.20;8.90;;;9.30;99.90;;;;;;5094480;28;20244;-77
2022/09/19 07:27:10;;;;;;;9.17;8.87;;;9.30;99.90;;;;;;5095543;28;20240;-77
2022/09/19 07:29:37;;;;;;;9.37;9.07;;;9.30;99.90;;;;;;5094915;28;20221;-74
2022/09/19 07:32:05;;;;;;;9.50;9.20;;;9.30;99.90;;;;;;5095709;28;20229;-77
2022/09/19 07:34:33;;;;;;;9.50;9.20;;;9.40;99.90;;;;;;5094887;28;20233;-77
2022/09/19 07:37:00;;;;;;;9.70;9.40;;;9.50;99.90;;;;;;5094964;28;20233;-77
2022/09/19 07:39:28;;;;;;;9.83;9.53;;;9.50;99.90;;;;;;5094156;28;21015;-76
2022/09/19 07:41:56;;;;;;;9.17;8.87;;;9.60;99.90;;;;;;5094650;28;20222;-76
2022/09/19 07:44:24;;;;;;;9.30;9.00;;;9.60;99.90;;;;;;5094617;28;20237;-76
2022/09/19 07:49:33;;;;;;;9.50;9.20;;;9.70;99.90;;;;;;5088194;28;20242;-78
2022/09/19 07:52:00;;;;;;;9.43;9.13;;;9.80;99.90;;;;;;5095403;28;20229;-77
2022/09/19 07:54:28;;;;;;;9.33;9.03;;;9.90;99.90;;;;;;5093261;28;20237;-76
2022/09/19 07:56:57;;;;;;;8.90;8.70;;;10.00;99.90;;;;;;5094074;28;20249;-77
2022/09/19 07:59:24;;;;;;;9.13;8.83;;;10.00;99.90;;;;;;5095101;28;20275;-76
2022/09/19 08:01:52;;;;;;;9.13;8.83;;;10.10;99.90;;;;;;5098242;28;20218;-76
2022/09/19 08:04:19;;;;;;;8.97;8.77;;;10.20;99.90;;;;;;5098277;28;20242;-76
2022/09/19 08:06:47;;;;;;;9.00;8.80;;;10.30;99.90;;;;;;5096071;28;20240;-78
2022/09/19 08:09:14;;;;;;;8.97;8.77;;;10.30;99.90;;;;;;5088104;28;20662;-77
2022/09/19 08:11:42;;;;;;;8.77;8.57;;;10.30;99.90;;;;;;5089744;28;20225;-77
2022/09/19 08:14:11;;;;;;;9.23;8.93;;;10.40;99.90;;;;;;5094743;28;20243;-77
2022/09/19 08:16:38;;;;;;;9.20;8.90;;;10.50;99.90;;;;;;5094139;28;20238;-77
2022/09/19 08:19:06;;;;;;;9.20;8.90;;;10.50;99.90;;;;;;5094754;28;20230;-78
2022/09/19 08:21:33;;;;;;;9.50;9.20;;;10.60;99.90;;;;;;5095238;28;20240;-78
2022/09/19 08:24:02;;;;;;;9.53;9.23;;;10.60;99.90;;;;;;5090937;28;20237;-78
2022/09/19 08:26:30;;;;;;;9.83;9.53;;;10.70;99.90;;;;;;5093896;28;20233;-78
2022/09/19 08:28:58;;;;;;;9.80;9.50;;;10.70;99.90;;;;;;5095377;28;20229;-78
2022/09/19 08:31:28;;;;;;;9.57;9.27;;;10.70;99.90;;;;;;5095084;28;20279;-78
2022/09/19 08:33:56;;;;;;;9.50;9.20;;;10.80;99.90;;;;;;5094715;28;20292;-78
2022/09/19 08:36:23;;;;;;;9.50;9.20;;;10.90;99.90;;;;;;5095668;28;20241;-78
2022/09/19 08:38:50;;;;;;;9.60;9.30;;;10.90;99.90;;;;;;5095147;28;20238;-78
2022/09/19 08:41:44;;;;;;;9.40;9.10;;;11.00;99.90;;;;;;5095863;28;20231;-78
2022/09/19 08:44:21;;;;;;;9.50;9.20;;;11.10;99.90;;;;;;5095627;28;20240;-78
2022/09/19 08:46:58;;;;;;;9.40;9.10;;;11.10;99.90;;;;;;5093430;28;20240;-77
2022/09/19 08:49:31;;;;;;;9.40;9.10;;;11.20;99.90;;;;;;5090014;28;20312;-76
2022/09/19 08:52:03;;;;;;;9.67;9.37;;;11.40;99.90;;;;;;5100952;28;20285;-78
2022/09/19 08:54:35;;;;;;;9.90;9.60;;;11.60;99.90;;;;;;5106414;28;20239;-77
2022/09/19 08:57:02;;;;;;;9.67;9.37;;;11.80;99.90;;;;;;5104863;28;20784;-77
2022/09/19 08:59:37;;;;;;;9.40;9.10;;;12.00;99.90;;;;;;5096766;28;20267;-77
2022/09/19 09:02:24;;;;;;;9.47;9.17;;;12.00;99.90;;;;;;5096478;28;20219;-77
2022/09/19 09:04:54;;;;;;;9.00;8.80;;;11.90;99.90;;;;;;5091492;28;20306;-77
2022/09/19 09:07:35;;;;;;;9.33;9.03;;;11.90;99.90;;;;;;5096885;28;20262;-77
2022/09/19 09:10:23;;;;;;;9.20;8.90;;;11.90;99.90;;;;;;5093179;28;20682;-77
2022/09/19 09:13:04;;;;;;;9.30;9.00;;;12.00;99.90;;;;;;5096660;28;20232;-77
2022/09/19 09:15:58;;;;;;;9.20;8.90;;;11.90;99.90;;;;;;5093749;28;20237;-77
2022/09/19 09:18:58;;;;;;;9.20;8.90;;;11.80;99.90;;;;;;5099240;28;20225;-77
2022/09/19 09:21:40;;;;;;;8.90;8.70;;;11.60;99.90;;;;;;5099815;28;20233;-77
2022/09/19 09:24:17;;;;;;;9.00;8.80;;;11.50;99.90;;;;;;5099612;28;20225;-77
2022/09/19 09:26:47;;;;;;;8.83;8.63;;;11.50;99.90;;;;;;5099439;28;20266;-77
2022/09/19 09:29:23;;;;;;;8.67;8.47;;;11.50;99.90;;;;;;5099545;28;20230;-77
2022/09/19 09:31:58;;;;;;;8.63;8.43;;;11.60;99.90;;;;;;5099354;28;20253;-77
2022/09/19 09:34:31;;;;;;;8.90;8.70;;;11.60;99.90;;;;;;5098768;28;20243;-78
2022/09/19 09:37:04;;;;;;;8.77;8.57;;;11.80;99.90;;;;;;5099408;28;20233;-77
2022/09/19 09:39:58;;;;;;;9.00;8.80;;;12.00;99.90;;;;;;5100025;28;20712;-77
2022/09/19 09:42:34;;;;;;;8.73;8.53;;;12.10;99.90;;;;;;5109085;28;20209;-77
2022/09/19 09:45:10;;;;;;;8.77;8.57;;;12.30;99.90;;;;;;5121155;28;20221;-75
2022/09/19 09:47:48;;;;;;;9.00;8.80;;;12.40;99.90;;;;;;5121495;28;20227;-74
2022/09/19 09:50:54;;;;;;;9.00;8.80;;;12.50;99.90;;;;;;5116925;28;20229;-77
2022/09/19 09:53:35;;;;;;;8.90;8.70;;;12.50;99.90;;;;;;5102982;28;20277;-77
2022/09/19 09:56:16;;;;;;;8.80;8.60;;;12.40;99.90;;;;;;5098742;28;20235;-77
2022/09/19 10:03:34;;;;;;;8.87;8.67;;;12.50;99.90;;;;;;5099489;28;20230;-77
2022/09/19 10:05:14;;;;;;;8.93;8.73;;;12.70;99.90;;;;;;5098583;28;20213;-77
2022/09/19 10:07:58;;;;;;;9.17;8.87;;;12.70;99.90;;;;;;5096142;28;20259;-76
2022/09/19 10:10:28;;;;;;;8.60;8.40;;;12.80;99.90;;;;;;5099109;28;20348;-76
2022/09/19 10:13:04;;;;;;;8.80;8.60;;;13.00;99.90;;;;;;5099489;28;20233;-77
2022/09/19 10:15:32;;;;;;;9.20;8.90;;;13.10;99.90;;;;;;5098101;28;20255;-77
2022/09/19 10:18:07;;;;;;;8.77;8.57;;;13.20;99.90;;;;;;5098063;28;20279;-77
2022/09/19 10:20:39;;;;;;;8.90;8.70;;;13.30;99.90;;;;;;5098262;28;20239;-77
2022/09/19 10:23:15;;;;;;;8.60;8.40;;;13.30;99.90;;;;;;5098534;28;20287;-76
2022/09/19 10:25:44;;;;;;;8.50;8.30;;;13.30;99.90;;;;;;5097428;28;20244;-76
2022/09/19 10:28:23;;;;;;;8.77;8.57;;;13.20;99.90;;;;;;5097278;28;20244;-78
2022/09/19 10:30:59;;;;;;;8.57;8.37;;;13.10;99.90;;;;;;5080032;28;20234;-77
2022/09/19 10:33:38;;;;;;;8.67;8.47;;;13.00;99.90;;;;;;5079391;28;20271;-79
2022/09/19 10:36:15;;;;;;;8.83;8.63;;;12.90;99.90;;;;;;5144477;22;20236;-82
2022/09/19 10:39:00;;;;;;;8.80;8.60;;;12.80;99.90;;;;;;5126411;28;20235;-83
2022/09/19 10:41:32;;;;;;;8.83;8.63;;;12.70;99.90;;;;;;5118358;28;20245;-83
2022/09/19 10:44:08;;;;;;;8.87;8.67;;;12.70;99.90;;;;;;5125946;27;20235;-85
2022/09/19 10:46:45;;;;;;;9.20;8.90;;;12.50;99.90;;;;;;5106353;28;20236;-83
2022/09/19 10:49:25;;;;;;;8.90;8.70;;;12.50;99.90;;;;;;5106966;28;20332;-83
2022/09/19 10:54:50;;;;;;;9.37;9.07;;;12.90;99.90;;;;;;5082662;28;20292;-83
2022/09/19 10:57:45;;;;;;;9.37;9.07;;;13.00;99.90;;;;;;5084930;28;20284;-83
2022/09/19 11:00:25;;;;;;;9.00;8.77;;;12.80;99.90;;;;;;5087084;28;20224;-83
2022/09/19 11:03:10;;;;;;;9.10;8.80;;;12.50;99.90;;;;;;5085240;28;20226;-84
2022/09/19 11:05:40;;;;;;;9.33;9.03;;;12.00;99.90;;;;;;5084416;28;20241;-83
2022/09/19 11:08:26;;;;;;;9.00;8.80;;;11.80;99.90;;;;;;5086110;28;20252;-83
2022/09/19 11:11:36;;;;;;;9.20;8.90;;;11.80;99.90;;;;;;5092860;28;20194;-83
2022/09/19 11:14:37;;;;;;;8.83;8.63;;;11.90;99.90;;;;;;5099858;28;20233;-83
2022/09/19 11:17:53;;;;;;;9.50;9.20;;;11.90;99.90;;;;;;5089713;28;20283;-83
2022/09/19 11:20:38;;;;;;;9.37;9.07;;;12.00;99.90;;;;;;5086822;28;20238;-84
2022/09/19 11:23:56;;;;;;;9.60;9.30;;;12.10;99.90;;;;;;5086673;28;20226;-83
2022/09/19 11:26:39;;;;;;;9.57;9.27;;;12.10;99.90;;;;;;5089938;28;20325;-82
2022/09/19 11:29:33;;;;;;;9.60;9.30;;;12.00;99.90;;;;;;5107882;28;20249;-83
2022/09/19 11:32:13;;;;;;;9.67;9.37;;;11.80;99.90;;;;;;5106210;28;20236;-83
2022/09/19 11:34:51;;;;;;;9.20;8.90;;;11.70;99.90;;;;;;5104638;28;20235;-84
2022/09/19 11:37:37;;;;;;;9.77;9.47;;;11.70;99.90;;;;;;5105260;28;20256;-84
2022/09/19 11:40:27;;;;;;;9.50;9.20;;;12.00;99.90;;;;;;5105244;28;20222;-84
2022/09/19 11:43:12;;;;;;;9.40;9.10;;;12.30;99.90;;;;;;5105310;28;20237;-84
2022/09/19 11:45:59;;;;;;;9.10;8.80;;;12.70;99.90;;;;;;5104557;28;20240;-84
2022/09/19 11:49:07;;;;;;;9.30;9.00;;;13.10;99.90;;;;;;5107791;28;20240;-84
2022/09/19 11:51:50;;;;;;;9.03;8.80;;;13.40;99.90;;;;;;5106912;28;20213;-84
2022/09/19 11:54:44;;;;;;;8.87;8.67;;;13.50;99.90;;;;;;5098442;28;20289;-83
2022/09/19 11:57:36;;;;;;;9.30;9.00;;;13.40;99.90;;;;;;5102110;28;20225;-84
2022/09/19 12:00:14;;;;;;;9.50;9.20;;;13.40;99.90;;;;;;5102751;28;20216;-84
2022/09/19 12:03:18;;;;;;;9.40;9.10;;;13.50;99.90;;;;;;5102048;28;20229;-83
2022/09/19 12:06:24;;;;;;;9.03;8.83;;;13.60;99.90;;;;;;5101859;28;20233;-84
2022/09/19 12:11:56;;;;;;;8.93;8.73;;;13.40;99.90;;;;;;5102965;28;20245;-83
2022/09/19 12:14:33;;;;;;;9.20;8.90;;;13.50;99.90;;;;;;5102391;28;20233;-84
2022/09/19 12:17:28;;;;;;;8.87;8.67;;;13.50;99.90;;;;;;5103371;28;20287;-83
2022/09/19 12:20:07;;;;;;;9.23;8.93;;;13.60;99.90;;;;;;5097535;28;20229;-83
2022/09/19 12:22:36;;;;;;;9.53;9.23;;;13.60;99.90;;;;;;5082365;28;20230;-84
2022/09/19 12:25:13;;;;;;;9.23;8.93;;;13.70;99.90;;;;;;5082562;28;20234;-84
2022/09/19 12:27:49;;;;;;;9.30;9.00;;;13.80;99.90;;;;;;5083216;28;20232;-85
2022/09/19 12:30:20;;;;;;;9.30;9.00;;;13.90;99.90;;;;;;5088441;28;20221;-84
2022/09/19 12:33:06;;;;;;;9.70;9.40;;;14.20;99.90;;;;;;5090232;28;20238;-84
2022/09/19 12:35:47;;;;;;;9.70;9.40;;;14.40;99.90;;;;;;5085173;28;20245;-83
2022/09/19 12:38:27;;;;;;;9.53;9.23;;;15.00;99.90;;;;;;5084935;28;20246;-82
2022/09/19 12:41:05;;;;;;;9.70;9.40;;;15.10;99.90;;;;;;5084215;28;20222;-84
2022/09/19 12:43:41;;;;;;;9.80;9.50;;;15.00;99.90;;;;;;5094478;28;20233;-84
2022/09/19 12:46:38;;;;;;;9.50;9.20;;;15.00;99.90;;;;;;5104271;28;20301;-84
2022/09/19 12:49:26;;;;;;;9.57;9.27;;;15.40;99.90;;;;;;5109958;28;20232;-83
2022/09/19 12:52:04;;;;;;;9.57;9.27;;;15.70;99.90;;;;;;5113942;28;20225;-84
2022/09/19 12:54:43;;;;;;;9.68;9.38;;;15.70;99.90;;;;;;5102659;28;20241;-84
2022/09/19 12:57:19;;;;;;;9.75;9.45;;;15.70;99.90;;;;;;5101821;28;20236;-84
2022/09/19 12:59:50;;;;;;;9.60;9.30;;;16.00;99.90;;;;;;5102182;28;20221;-83
2022/09/19 13:02:28;;;;;;;9.48;9.18;;;16.10;99.90;;;;;;5102791;28;20229;-86
2022/09/19 13:05:07;;;;;;;9.45;9.15;;;16.00;99.90;;;;;;5102534;28;20241;-85
2022/09/19 13:07:45;;;;;;;9.32;9.02;;;15.90;99.90;;;;;;5102292;28;20312;-84
2022/09/19 13:10:21;;;;;;;9.50;9.20;;;15.60;99.90;;;;;;5099611;28;20239;-84
2022/09/19 13:13:04;;;;;;;9.90;9.60;;;15.40;99.90;;;;;;5082763;28;20316;-84
2022/09/19 13:15:39;;;;;;;9.68;9.38;;;15.40;99.90;;;;;;5084156;28;20240;-84
2022/09/19 13:23:52;;;;;;;9.80;9.50;;;15.00;99.90;;;;;;5088079;28;20228;-84
2022/09/19 13:26:30;;;;;;;9.40;9.10;;;15.00;99.90;;;;;;5082304;28;20233;-85
2022/09/19 13:29:00;;;;;;;9.30;9.00;;;14.90;99.90;;;;;;5083468;28;20225;-85
2022/09/19 13:31:38;;;;;;;9.60;9.30;;;14.60;99.90;;;;;;5097679;28;20328;-84
2022/09/19 13:34:42;;;;;;;9.20;8.90;;;14.50;99.90;;;;;;5102556;28;20239;-83
2022/09/19 13:38:22;;;;;;;9.20;8.90;;;14.30;99.90;;;;;;5102888;28;20229;-84
2022/09/19 13:41:04;;;;;;;9.00;8.80;;;13.90;99.90;;;;;;5079221;28;20298;-84
2022/09/19 13:43:49;;;;;;;9.20;8.90;;;13.40;99.90;;;;;;5083330;28;20226;-83
2022/09/19 13:46:26;;;;;;;9.33;9.03;;;12.70;99.90;;;;;;5101269;28;20218;-85
2022/09/19 13:48:58;;;;;;;8.90;8.70;;;12.30;99.90;;;;;;5097984;28;20225;-85
2022/09/19 13:51:42;;;;;;;9.57;9.27;;;12.10;99.90;;;;;;5103477;28;20282;-86
2022/09/19 13:55:05;;;;;;;9.07;8.77;;;11.90;99.90;;;;;;5101936;28;20231;-86